sensor_id;sensor_type;location;lat;lon;timestamp;pressure;altitude;pressure_sealevel;temperature;humidity
12666;BME280;58531;59.050;17.416;2023-05-08T00:01:29;102387.09;;;-0.02;100.00
12666;BME280;58531;59.050;17.416;2023-05-08T00:03:56;102385.56;;;-0.03;100.00
12666;BME280;58531;59.050;17.416;2023-05-08T00:06:23;102387.41;;;-0.03;100.00
12666;BME280;58531;59.050;17.416;2023-05-08T00:08:49;102384.47;;;-0.02;100.00
12666;BME280;58531;59.050;17.416;2023-05-08T00:11:18;102386.03;;;-0.09;100.00
12666;BME280;58531;59.050;17.416;2023-05-08T00:13:45;102380.34;;;-0.11;100.00
12666;BME280;58531;59.050;17.416;2023-05-08T00:16:12;102383.31;;;-0.13;100.00
12666;BME280;58531;59.050;17.416;2023-05-08T00:18:39;102377.47;;;-0.18;100.00
12666;BME280;58531;59.050;17.416;2023-05-08T00:21:06;102376.69;;;-0.19;100.00
12666;BME280;58531;59.050;17.416;2023-05-08T00:23:33;102376.69;;;-0.19;100.00
12666;BME280;58531;59.050;17.416;2023-05-08T00:26:00;102376.56;;;-0.22;100.00
12666;BME280;58531;59.050;17.416;2023-05-08T00:28:28;102381.81;;;-0.22;100.00
12666;BME280;58531;59.050;17.416;2023-05-08T00:30:58;102368.38;;;-0.21;100.00
12666;BME280;58531;59.050;17.416;2023-05-08T00:33:25;102375.34;;;-0.25;100.00
12666;BME280;58531;59.050;17.416;2023-05-08T00:35:58;102372.78;;;-0.33;100.00
12666;BME280;58531;59.050;17.416;2023-05-08T00:38:24;102382.19;;;-0.32;100.00
12666;BME280;58531;59.050;17.416;2023-05-08T00:40:51;102387.13;;;-0.31;100.00
12666;BME280;58531;59.050;17.416;2023-05-08T00:43:18;102380.94;;;-0.26;100.00
12666;BME280;58531;59.050;17.416;2023-05-08T00:45:51;102389.22;;;-0.24;100.00
12666;BME280;58531;59.050;17.416;2023-05-08T00:48:20;102382.25;;;-0.20;100.00
12666;BME280;58531;59.050;17.416;2023-05-08T00:50:47;102386.22;;;-0.14;100.00
12666;BME280;58531;59.050;17.416;2023-05-08T00:53:15;102384.06;;;-0.12;100.00
12666;BME280;58531;59.050;17.416;2023-05-08T00:55:42;102382.53;;;-0.13;100.00
12666;BME280;58531;59.050;17.416;2023-05-08T00:58:11;102388.22;;;-0.11;100.00
12666;BME280;58531;59.050;17.416;2023-05-08T01:00:40;102386.69;;;-0.12;100.00
12666;BME280;58531;59.050;17.416;2023-05-08T01:03:10;102385.34;;;-0.18;100.00
12666;BME280;58531;59.050;17.416;2023-05-08T01:05:37;102389.81;;;-0.19;100.00
12666;BME280;58531;59.050;17.416;2023-05-08T01:08:04;102390.78;;;-0.23;100.00
12666;BME280;58531;59.050;17.416;2023-05-08T01:10:39;102394.19;;;-0.23;100.00
12666;BME280;58531;59.050;17.416;2023-05-08T01:13:12;102389.44;;;-0.29;100.00
12666;BME280;58531;59.050;17.416;2023-05-08T01:15:48;102397.31;;;-0.29;100.00
12666;BME280;58531;59.050;17.416;2023-05-08T01:18:22;102397.16;;;-0.33;100.00
12666;BME280;58531;59.050;17.416;2023-05-08T01:20:59;102397.78;;;-0.27;100.00
12666;BME280;58531;59.050;17.416;2023-05-08T01:23:42;102395.56;;;-0.25;100.00
12666;BME280;58531;59.050;17.416;2023-05-08T01:30:11;102398.78;;;-0.20;100.00
12666;BME280;58531;59.050;17.416;2023-05-08T01:32:45;102399.72;;;-0.24;100.00
12666;BME280;58531;59.050;17.416;2023-05-08T01:35:20;102400.50;;;-0.24;100.00
12666;BME280;58531;59.050;17.416;2023-05-08T01:37:56;102403.13;;;-0.24;100.00
12666;BME280;58531;59.050;17.416;2023-05-08T01:40:30;102402.81;;;-0.22;100.00
12666;BME280;58531;59.050;17.416;2023-05-08T01:43:07;102406.97;;;-0.21;100.00
12666;BME280;58531;59.050;17.416;2023-05-08T01:45:38;102399.53;;;-0.19;100.00
12666;BME280;58531;59.050;17.416;2023-05-08T01:48:10;102402.81;;;-0.22;100.00
12666;BME280;58531;59.050;17.416;2023-05-08T01:50:45;102402.06;;;-0.23;100.00
12666;BME280;58531;59.050;17.416;2023-05-08T01:53:20;102404.22;;;-0.25;100.00
12666;BME280;58531;59.050;17.416;2023-05-08T01:55:50;102402.06;;;-0.23;100.00
12666;BME280;58531;59.050;17.416;2023-05-08T01:58:19;102399.59;;;-0.28;100.00
12666;BME280;58531;59.050;17.416;2023-05-08T02:00:48;102401.78;;;-0.30;100.00
12666;BME280;58531;59.050;17.416;2023-05-08T02:03:19;102405.38;;;-0.34;100.00
12666;BME280;58531;59.050;17.416;2023-05-08T02:05:47;102400.75;;;-0.37;100.00
12666;BME280;58531;59.050;17.416;2023-05-08T02:08:17;102408.94;;;-0.39;100.00
12666;BME280;58531;59.050;17.416;2023-05-08T02:10:46;102411.25;;;-0.37;100.00
12666;BME280;58531;59.050;17.416;2023-05-08T02:13:14;102406.47;;;-0.35;100.00
12666;BME280;58531;59.050;17.416;2023-05-08T02:15:46;102409.72;;;-0.38;100.00
12666;BME280;58531;59.050;17.416;2023-05-08T02:18:14;102404.91;;;-0.36;100.00
12666;BME280;58531;59.050;17.416;2023-05-08T02:20:43;102400.13;;;-0.34;100.00
12666;BME280;58531;59.050;17.416;2023-05-08T02:23:11;102400.44;;;-0.36;100.00
12666;BME280;58531;59.050;17.416;2023-05-08T02:25:40;102399.34;;;-0.35;100.00
12666;BME280;58531;59.050;17.416;2023-05-08T02:28:09;102398.59;;;-0.35;100.00
12666;BME280;58531;59.050;17.416;2023-05-08T02:30:36;102403.19;;;-0.32;100.00
12666;BME280;58531;59.050;17.416;2023-05-08T02:33:06;102395.63;;;-0.34;100.00
12666;BME280;58531;59.050;17.416;2023-05-08T02:35:34;102405.38;;;-0.34;100.00
12666;BME280;58531;59.050;17.416;2023-05-08T02:38:04;102399.66;;;-0.36;100.00
12666;BME280;58531;59.050;17.416;2023-05-08T02:40:37;102401.22;;;-0.35;100.00
12666;BME280;58531;59.050;17.416;2023-05-08T02:43:05;102405.38;;;-0.34;100.00
12666;BME280;58531;59.050;17.416;2023-05-08T02:45:38;102405.38;;;-0.34;100.00
12666;BME280;58531;59.050;17.416;2023-05-08T02:48:09;102410.75;;;-0.31;100.00
12666;BME280;58531;59.050;17.416;2023-05-08T02:50:44;102403.03;;;-0.27;100.00
12666;BME280;58531;59.050;17.416;2023-05-08T02:53:19;102401.94;;;-0.26;100.00
12666;BME280;58531;59.050;17.416;2023-05-08T02:55:54;102396.69;;;-0.26;100.00
12666;BME280;58531;59.050;17.416;2023-05-08T02:58:29;102391.44;;;-0.26;100.00
12666;BME280;58531;59.050;17.416;2023-05-08T03:01:01;102393.84;;;-0.21;100.00
12666;BME280;58531;59.050;17.416;2023-05-08T03:03:34;102390.59;;;-0.18;100.00
12666;BME280;58531;59.050;17.416;2023-05-08T03:06:06;102388.41;;;-0.16;100.00
12666;BME280;58531;59.050;17.416;2023-05-08T03:08:38;102390.53;;;-0.10;100.00
12666;BME280;58531;59.050;17.416;2023-05-08T03:11:08;102388.38;;;-0.08;100.00
12666;BME280;58531;59.050;17.416;2023-05-08T03:13:38;102395.16;;;-0.07;100.00
12666;BME280;58531;59.050;17.416;2023-05-08T03:16:10;102389.28;;;-0.04;100.00
12666;BME280;58531;59.050;17.416;2023-05-08T03:18:42;102390.94;;;0.00;100.00
12666;BME280;58531;59.050;17.416;2023-05-08T03:21:12;102390.09;;;0.08;100.00
12666;BME280;58531;59.050;17.416;2023-05-08T03:23:45;102388.94;;;0.18;100.00
12666;BME280;58531;59.050;17.416;2023-05-08T03:26:16;102390.38;;;0.27;100.00
12666;BME280;58531;59.050;17.416;2023-05-08T03:28:45;102393.06;;;0.39;100.00
12666;BME280;58531;59.050;17.416;2023-05-08T03:31:14;102396.84;;;0.50;100.00
12666;BME280;58531;59.050;17.416;2023-05-08T03:33:44;102398.28;;;0.60;100.00
12666;BME280;58531;59.050;17.416;2023-05-08T03:36:11;102399.31;;;0.67;100.00
12666;BME280;58531;59.050;17.416;2023-05-08T03:38:39;102397.38;;;0.76;100.00
12666;BME280;58531;59.050;17.416;2023-05-08T03:41:07;102400.34;;;0.87;100.00
12666;BME280;58531;59.050;17.416;2023-05-08T03:43:36;102407.28;;;1.03;100.00
12666;BME280;58531;59.050;17.416;2023-05-08T03:46:04;102404.91;;;1.22;100.00
12666;BME280;58531;59.050;17.416;2023-05-08T03:48:32;102402.63;;;1.96;100.00
12666;BME280;58531;59.050;17.416;2023-05-08T03:51:00;102411.13;;;3.64;100.00
12666;BME280;58531;59.050;17.416;2023-05-08T03:53:28;102415.66;;;5.44;100.00
12666;BME280;58531;59.050;17.416;2023-05-08T03:55:56;102420.06;;;7.23;100.00
12666;BME280;58531;59.050;17.416;2023-05-08T03:58:30;102423.13;;;8.92;91.21
12666;BME280;58531;59.050;17.416;2023-05-08T04:01:04;102422.75;;;10.56;75.40
12666;BME280;58531;59.050;17.416;2023-05-08T04:03:43;102432.63;;;12.01;62.85
12666;BME280;58531;59.050;17.416;2023-05-08T04:06:23;102431.72;;;13.20;55.37
12666;BME280;58531;59.050;17.416;2023-05-08T04:09:02;102420.88;;;14.27;50.13
12666;BME280;58531;59.050;17.416;2023-05-08T04:11:34;102430.38;;;15.15;45.16
12666;BME280;58531;59.050;17.416;2023-05-08T04:14:07;102432.16;;;15.94;41.25
12666;BME280;58531;59.050;17.416;2023-05-08T04:16:39;102426.28;;;16.12;38.34
12666;BME280;58531;59.050;17.416;2023-05-08T04:19:12;102420.69;;;16.19;38.16
12666;BME280;58531;59.050;17.416;2023-05-08T04:21:41;102434.69;;;16.55;37.88
12666;BME280;58531;59.050;17.416;2023-05-08T04:24:12;102432.81;;;17.01;37.78
12666;BME280;58531;59.050;17.416;2023-05-08T04:26:40;102428.34;;;17.20;36.83
12666;BME280;58531;59.050;17.416;2023-05-08T04:29:09;102427.50;;;16.98;36.61
12666;BME280;58531;59.050;17.416;2023-05-08T04:31:37;102424.97;;;17.28;35.88
12666;BME280;58531;59.050;17.416;2023-05-08T04:34:05;102425.63;;;17.32;35.76
12666;BME280;58531;59.050;17.416;2023-05-08T04:36:34;102419.75;;;16.62;35.82
12666;BME280;58531;59.050;17.416;2023-05-08T04:39:01;102424.41;;;15.96;37.94
12666;BME280;58531;59.050;17.416;2023-05-08T04:41:28;102429.47;;;16.35;37.04
12666;BME280;58531;59.050;17.416;2023-05-08T04:43:54;102436.81;;;16.59;36.97
12666;BME280;58531;59.050;17.416;2023-05-08T04:46:23;102440.41;;;16.57;35.92
12666;BME280;58531;59.050;17.416;2023-05-08T04:48:50;102441.31;;;17.00;35.18
12666;BME280;58531;59.050;17.416;2023-05-08T04:51:17;102438.09;;;18.15;34.10
12666;BME280;58531;59.050;17.416;2023-05-08T04:53:43;102445.56;;;19.11;32.65
12666;BME280;58531;59.050;17.416;2023-05-08T04:56:10;102450.09;;;20.13;30.22
12666;BME280;58531;59.050;17.416;2023-05-08T04:58:37;102445.88;;;19.76;30.56
12666;BME280;58531;59.050;17.416;2023-05-08T05:01:04;102447.38;;;19.23;31.17
12666;BME280;58531;59.050;17.416;2023-05-08T05:03:32;102449.81;;;19.84;29.73
12666;BME280;58531;59.050;17.416;2023-05-08T05:06:00;102455.59;;;20.69;28.40
12666;BME280;58531;59.050;17.416;2023-05-08T05:08:27;102450.66;;;21.00;28.63
12666;BME280;58531;59.050;17.416;2023-05-08T05:10:54;102454.06;;;21.70;26.87
12666;BME280;58531;59.050;17.416;2023-05-08T05:13:20;102447.63;;;21.45;26.91
12666;BME280;58531;59.050;17.416;2023-05-08T05:15:47;102454.34;;;21.49;26.93
12666;BME280;58531;59.050;17.416;2023-05-08T05:18:15;102448.38;;;21.22;27.35
12666;BME280;58531;59.050;17.416;2023-05-08T05:20:44;102450.34;;;20.98;27.38
12666;BME280;58531;59.050;17.416;2023-05-08T05:23:12;102444.13;;;19.55;29.01
12666;BME280;58531;59.050;17.416;2023-05-08T05:25:39;102445.91;;;20.77;28.19
12666;BME280;58531;59.050;17.416;2023-05-08T05:28:05;102441.88;;;20.31;29.18
12666;BME280;58531;59.050;17.416;2023-05-08T05:30:32;102444.44;;;21.84;26.75
12666;BME280;58531;59.050;17.416;2023-05-08T05:32:59;102443.00;;;21.88;26.18
12666;BME280;58531;59.050;17.416;2023-05-08T05:35:26;102454.19;;;21.52;27.65
12666;BME280;58531;59.050;17.416;2023-05-08T05:37:54;102448.53;;;21.79;26.31
12666;BME280;58531;59.050;17.416;2023-05-08T05:40:21;102448.09;;;21.20;27.76
12666;BME280;58531;59.050;17.416;2023-05-08T05:42:48;102457.19;;;21.78;26.22
12666;BME280;58531;59.050;17.416;2023-05-08T05:45:15;102452.19;;;21.76;26.26
12666;BME280;58531;59.050;17.416;2023-05-08T05:47:46;102453.13;;;20.47;27.47
12666;BME280;58531;59.050;17.416;2023-05-08T05:50:14;102455.94;;;21.64;27.08
12666;BME280;58531;59.050;17.416;2023-05-08T05:52:42;102443.00;;;21.88;26.51
12666;BME280;58531;59.050;17.416;2023-05-08T05:55:10;102452.06;;;21.56;27.10
12666;BME280;58531;59.050;17.416;2023-05-08T05:57:37;102448.28;;;20.93;27.09
12666;BME280;58531;59.050;17.416;2023-05-08T06:00:06;102458.84;;;21.38;27.44
12666;BME280;58531;59.050;17.416;2023-05-08T06:02:34;102457.19;;;22.36;26.19
12666;BME280;58531;59.050;17.416;2023-05-08T06:05:01;102446.97;;;22.79;24.63
12666;BME280;58531;59.050;17.416;2023-05-08T06:07:28;102453.22;;;22.22;25.00
12666;BME280;58531;59.050;17.416;2023-05-08T06:09:55;102448.69;;;23.37;24.24
12666;BME280;58531;59.050;17.416;2023-05-08T06:12:23;102440.94;;;22.75;25.29
12666;BME280;58531;59.050;17.416;2023-05-08T06:14:50;102449.50;;;24.13;22.75
12666;BME280;58531;59.050;17.416;2023-05-08T06:17:17;102447.09;;;23.76;23.56
12666;BME280;58531;59.050;17.416;2023-05-08T06:19:44;102446.59;;;22.72;23.62
12666;BME280;58531;59.050;17.416;2023-05-08T06:22:14;102443.78;;;23.41;23.65
12666;BME280;58531;59.050;17.416;2023-05-08T06:24:41;102449.25;;;23.66;23.79
12666;BME280;58531;59.050;17.416;2023-05-08T06:27:09;102447.69;;;23.80;23.50
12666;BME280;58531;59.050;17.416;2023-05-08T06:29:37;102448.00;;;24.12;22.55
12666;BME280;58531;59.050;17.416;2023-05-08T06:32:04;102437.44;;;24.00;23.57
12666;BME280;58531;59.050;17.416;2023-05-08T06:34:31;102442.13;;;25.03;21.80
12666;BME280;58531;59.050;17.416;2023-05-08T06:36:58;102437.94;;;23.08;24.11
12666;BME280;58531;59.050;17.416;2023-05-08T06:39:24;102440.47;;;23.31;23.89
12666;BME280;58531;59.050;17.416;2023-05-08T06:41:51;102442.50;;;24.43;22.93
12666;BME280;58531;59.050;17.416;2023-05-08T06:44:18;102444.53;;;23.87;24.11
12666;BME280;58531;59.050;17.416;2023-05-08T06:46:46;102439.97;;;24.76;22.04
12666;BME280;58531;59.050;17.416;2023-05-08T06:49:13;102438.78;;;23.85;23.49
12666;BME280;58531;59.050;17.416;2023-05-08T06:51:40;102435.16;;;24.24;22.82
12666;BME280;58531;59.050;17.416;2023-05-08T06:54:07;102433.78;;;24.76;22.02
12666;BME280;58531;59.050;17.416;2023-05-08T06:56:34;102430.81;;;22.96;23.87
12666;BME280;58531;59.050;17.416;2023-05-08T06:59:01;102433.78;;;22.44;24.55
12666;BME280;58531;59.050;17.416;2023-05-08T07:01:27;102426.09;;;23.11;24.04
12666;BME280;58531;59.050;17.416;2023-05-08T07:03:55;102426.28;;;24.34;22.82
12666;BME280;58531;59.050;17.416;2023-05-08T07:06:22;102427.06;;;24.40;22.56
12666;BME280;58531;59.050;17.416;2023-05-08T07:08:49;102418.66;;;22.77;23.64
12666;BME280;58531;59.050;17.416;2023-05-08T07:11:16;102423.34;;;20.94;26.13
12666;BME280;58531;59.050;17.416;2023-05-08T07:13:43;102411.47;;;22.11;25.58
12666;BME280;58531;59.050;17.416;2023-05-08T07:16:12;102417.44;;;22.58;24.49
12666;BME280;58531;59.050;17.416;2023-05-08T07:18:39;102419.00;;;23.90;21.96
12666;BME280;58531;59.050;17.416;2023-05-08T07:21:07;102413.38;;;22.88;23.56
12666;BME280;58531;59.050;17.416;2023-05-08T07:23:34;102407.94;;;23.28;23.85
12666;BME280;58531;59.050;17.416;2023-05-08T07:26:01;102405.75;;;22.92;24.05
12666;BME280;58531;59.050;17.416;2023-05-08T07:28:28;102409.72;;;23.56;24.10
12666;BME280;58531;59.050;17.416;2023-05-08T07:30:54;102413.44;;;23.79;23.28
12666;BME280;58531;59.050;17.416;2023-05-08T07:33:21;102411.34;;;24.61;22.00
12666;BME280;58531;59.050;17.416;2023-05-08T07:35:48;102404.75;;;23.55;23.67
12666;BME280;58531;59.050;17.416;2023-05-08T07:38:16;102407.22;;;23.53;22.60
12666;BME280;58531;59.050;17.416;2023-05-08T07:40:43;102400.25;;;23.52;23.08
12666;BME280;58531;59.050;17.416;2023-05-08T07:43:10;102405.16;;;24.29;22.05
12666;BME280;58531;59.050;17.416;2023-05-08T07:45:38;102405.94;;;25.30;20.66
12666;BME280;58531;59.050;17.416;2023-05-08T07:48:05;102406.59;;;24.19;22.54
12666;BME280;58531;59.050;17.416;2023-05-08T07:50:32;102411.47;;;24.10;22.71
12666;BME280;58531;59.050;17.416;2023-05-08T07:52:59;102404.09;;;24.52;22.62
12666;BME280;58531;59.050;17.416;2023-05-08T07:55:27;102400.25;;;23.26;23.31
12666;BME280;58531;59.050;17.416;2023-05-08T07:57:54;102403.59;;;21.98;24.38
12666;BME280;58531;59.050;17.416;2023-05-08T08:00:21;102387.41;;;19.93;28.39
12666;BME280;58531;59.050;17.416;2023-05-08T08:02:49;102385.59;;;18.74;30.13
12666;BME280;58531;59.050;17.416;2023-05-08T08:05:15;102379.06;;;18.23;30.04
12666;BME280;58531;59.050;17.416;2023-05-08T08:07:42;102389.22;;;17.58;31.09
12666;BME280;58531;59.050;17.416;2023-05-08T08:10:09;102386.19;;;16.88;32.82
12666;BME280;58531;59.050;17.416;2023-05-08T08:12:38;102385.72;;;17.02;33.30
12666;BME280;58531;59.050;17.416;2023-05-08T08:15:05;102378.06;;;17.01;30.94
12666;BME280;58531;59.050;17.416;2023-05-08T08:17:32;102381.84;;;17.03;35.17
12666;BME280;58531;59.050;17.416;2023-05-08T08:19:59;102383.16;;;16.86;34.56
12666;BME280;58531;59.050;17.416;2023-05-08T08:22:26;102394.16;;;17.04;34.96
12666;BME280;58531;59.050;17.416;2023-05-08T08:24:54;102388.50;;;17.11;33.21
12666;BME280;58531;59.050;17.416;2023-05-08T08:27:21;102382.75;;;16.75;32.45
12666;BME280;58531;59.050;17.416;2023-05-08T08:29:49;102381.53;;;16.89;33.83
12666;BME280;58531;59.050;17.416;2023-05-08T08:32:15;102377.19;;;17.04;34.59
12666;BME280;58531;59.050;17.416;2023-05-08T08:34:42;102371.59;;;16.98;33.70
12666;BME280;58531;59.050;17.416;2023-05-08T08:37:09;102373.38;;;16.80;32.02
12666;BME280;58531;59.050;17.416;2023-05-08T08:39:36;102377.78;;;16.74;34.16
12666;BME280;58531;59.050;17.416;2023-05-08T08:42:03;102372.13;;;16.93;34.72
12666;BME280;58531;59.050;17.416;2023-05-08T08:44:30;102369.72;;;17.08;32.99
12666;BME280;58531;59.050;17.416;2023-05-08T08:46:58;102362.91;;;17.16;32.58
12666;BME280;58531;59.050;17.416;2023-05-08T08:49:28;102366.41;;;16.91;34.72
12666;BME280;58531;59.050;17.416;2023-05-08T08:51:58;102364.13;;;17.02;34.25
12666;BME280;58531;59.050;17.416;2023-05-08T08:54:29;102364.88;;;17.03;34.03
12666;BME280;58531;59.050;17.416;2023-05-08T08:57:00;102359.44;;;17.15;33.49
12666;BME280;58531;59.050;17.416;2023-05-08T08:59:27;102372.06;;;17.18;33.38
12666;BME280;58531;59.050;17.416;2023-05-08T09:01:57;102364.41;;;17.17;32.85
12666;BME280;58531;59.050;17.416;2023-05-08T09:04:26;102366.56;;;17.22;32.23
12666;BME280;58531;59.050;17.416;2023-05-08T09:06:54;102365.50;;;17.07;34.60
12666;BME280;58531;59.050;17.416;2023-05-08T09:09:22;102365.78;;;17.21;33.62
12666;BME280;58531;59.050;17.416;2023-05-08T09:11:51;102360.44;;;17.09;33.94
12666;BME280;58531;59.050;17.416;2023-05-08T09:14:18;102359.91;;;17.01;34.20
12666;BME280;58531;59.050;17.416;2023-05-08T09:16:45;102357.28;;;17.10;33.76
12666;BME280;58531;59.050;17.416;2023-05-08T09:19:14;102353.06;;;17.09;34.76
12666;BME280;58531;59.050;17.416;2023-05-08T09:21:41;102358.00;;;17.23;34.10
12666;BME280;58531;59.050;17.416;2023-05-08T09:24:08;102355.53;;;17.16;34.33
12666;BME280;58531;59.050;17.416;2023-05-08T09:26:36;102349.19;;;17.10;33.37
12666;BME280;58531;59.050;17.416;2023-05-08T09:29:08;102345.97;;;17.03;32.22
12666;BME280;58531;59.050;17.416;2023-05-08T09:31:35;102347.56;;;17.13;34.26
12666;BME280;58531;59.050;17.416;2023-05-08T09:34:04;102345.41;;;17.08;33.97
12666;BME280;58531;59.050;17.416;2023-05-08T09:36:33;102348.84;;;17.21;32.39
12666;BME280;58531;59.050;17.416;2023-05-08T09:39:00;102335.75;;;17.19;34.04
12666;BME280;58531;59.050;17.416;2023-05-08T09:41:27;102331.75;;;17.02;33.23
12666;BME280;58531;59.050;17.416;2023-05-08T09:44:05;102326.34;;;17.02;33.88
12666;BME280;58531;59.050;17.416;2023-05-08T09:46:35;102332.25;;;17.10;35.51
12666;BME280;58531;59.050;17.416;2023-05-08T09:49:02;102324.31;;;17.15;34.76
12666;BME280;58531;59.050;17.416;2023-05-08T09:51:30;102324.84;;;17.23;35.04
12666;BME280;58531;59.050;17.416;2023-05-08T09:53:59;102314.69;;;17.27;34.69
12666;BME280;58531;59.050;17.416;2023-05-08T09:56:36;102315.22;;;17.34;33.25
12666;BME280;58531;59.050;17.416;2023-05-08T09:59:04;102328.81;;;17.31;34.60
12666;BME280;58531;59.050;17.416;2023-05-08T10:01:32;102314.69;;;17.27;34.22
12666;BME280;58531;59.050;17.416;2023-05-08T10:04:01;102320.59;;;17.34;34.15
12666;BME280;58531;59.050;17.416;2023-05-08T10:06:28;102317.69;;;17.29;34.49
12666;BME280;58531;59.050;17.416;2023-05-08T10:09:10;102316.94;;;17.28;35.21
12666;BME280;58531;59.050;17.416;2023-05-08T10:11:38;102326.88;;;17.53;34.35
12666;BME280;58531;59.050;17.416;2023-05-08T10:14:06;102324.25;;;17.62;37.30
12666;BME280;58531;59.050;17.416;2023-05-08T10:16:39;102322.56;;;17.55;36.00
12666;BME280;58531;59.050;17.416;2023-05-08T10:19:11;102322.50;;;17.12;35.86
12666;BME280;58531;59.050;17.416;2023-05-08T10:21:40;102329.28;;;16.95;36.90
12666;BME280;58531;59.050;17.416;2023-05-08T10:24:13;102318.75;;;17.10;38.91
12666;BME280;58531;59.050;17.416;2023-05-08T10:26:43;102305.66;;;17.42;36.53
12666;BME280;58531;59.050;17.416;2023-05-08T10:29:17;102319.22;;;17.51;34.61
12666;BME280;58531;59.050;17.416;2023-05-08T10:31:49;102315.56;;;17.67;37.99
12666;BME280;58531;59.050;17.416;2023-05-08T10:34:18;102308.66;;;17.66;36.76
12666;BME280;58531;59.050;17.416;2023-05-08T10:36:46;102307.84;;;17.56;36.58
12666;BME280;58531;59.050;17.416;2023-05-08T10:39:15;102302.88;;;17.55;37.55
12666;BME280;58531;59.050;17.416;2023-05-08T10:41:42;102314.56;;;17.52;38.09
12666;BME280;58531;59.050;17.416;2023-05-08T10:44:10;102300.88;;;17.46;37.60
12666;BME280;58531;59.050;17.416;2023-05-08T10:46:45;102306.22;;;17.37;37.21
12666;BME280;58531;59.050;17.416;2023-05-08T10:49:19;102310.50;;;17.47;36.43
12666;BME280;58531;59.050;17.416;2023-05-08T10:51:57;102314.88;;;17.54;37.55
12666;BME280;58531;59.050;17.416;2023-05-08T10:54:37;102309.00;;;17.46;36.35
12666;BME280;58531;59.050;17.416;2023-05-08T10:57:09;102296.31;;;17.34;35.74
12666;BME280;58531;59.050;17.416;2023-05-08T10:59:36;102295.91;;;17.45;38.08
12666;BME280;58531;59.050;17.416;2023-05-08T11:02:04;102297.63;;;17.51;35.65
12666;BME280;58531;59.050;17.416;2023-05-08T11:04:31;102299.13;;;17.31;35.14
12666;BME280;58531;59.050;17.416;2023-05-08T11:06:58;102296.59;;;17.15;36.11
12666;BME280;58531;59.050;17.416;2023-05-08T11:09:27;102291.88;;;17.28;36.36
12666;BME280;58531;59.050;17.416;2023-05-08T11:12:05;102295.75;;;17.39;37.25
12666;BME280;58531;59.050;17.416;2023-05-08T11:14:34;102287.44;;;17.34;35.02
12666;BME280;58531;59.050;17.416;2023-05-08T11:17:05;102298.50;;;17.48;37.14
12666;BME280;58531;59.050;17.416;2023-05-08T11:19:34;102293.59;;;17.34;36.44
12666;BME280;58531;59.050;17.416;2023-05-08T11:22:15;102287.31;;;17.37;36.39
12666;BME280;58531;59.050;17.416;2023-05-08T11:24:51;102294.84;;;17.42;35.65
12666;BME280;58531;59.050;17.416;2023-05-08T11:27:35;102294.47;;;17.31;36.07
12666;BME280;58531;59.050;17.416;2023-05-08T11:30:21;102295.31;;;17.28;33.91
12666;BME280;58531;59.050;17.416;2023-05-08T11:35:54;102286.91;;;17.26;35.37
12666;BME280;58531;59.050;17.416;2023-05-08T11:38:29;102293.22;;;17.45;35.77
12666;BME280;58531;59.050;17.416;2023-05-08T11:40:58;102284.28;;;17.57;35.29
12666;BME280;58531;59.050;17.416;2023-05-08T11:43:57;102285.50;;;17.34;33.90
12666;BME280;58531;59.050;17.416;2023-05-08T11:46:37;102281.13;;;17.15;35.29
12666;BME280;58531;59.050;17.416;2023-05-08T11:49:04;102275.97;;;17.08;35.46
12666;BME280;58531;59.050;17.416;2023-05-08T11:51:35;102277.22;;;17.16;35.92
12666;BME280;58531;59.050;17.416;2023-05-08T11:54:03;102284.31;;;17.35;35.89
12666;BME280;58531;59.050;17.416;2023-05-08T11:56:31;102278.34;;;17.40;34.65
12666;BME280;58531;59.050;17.416;2023-05-08T11:59:03;102274.59;;;17.25;34.14
12666;BME280;58531;59.050;17.416;2023-05-08T12:01:31;102280.50;;;17.11;34.33
12666;BME280;58531;59.050;17.416;2023-05-08T12:04:03;102284.03;;;16.99;34.68
12666;BME280;58531;59.050;17.416;2023-05-08T12:06:31;102274.34;;;16.89;34.06
12666;BME280;58531;59.050;17.416;2023-05-08T12:08:59;102267.81;;;16.99;35.15
12666;BME280;58531;59.050;17.416;2023-05-08T12:11:29;102277.94;;;17.08;34.31
12666;BME280;58531;59.050;17.416;2023-05-08T12:13:57;102274.41;;;16.98;34.97
12666;BME280;58531;59.050;17.416;2023-05-08T12:16:25;102281.88;;;16.94;33.77
12666;BME280;58531;59.050;17.416;2023-05-08T12:18:52;102276.88;;;17.05;33.37
12666;BME280;58531;59.050;17.416;2023-05-08T12:21:22;102270.66;;;16.62;33.12
12666;BME280;58531;59.050;17.416;2023-05-08T12:23:48;102270.69;;;16.50;32.58
12666;BME280;58531;59.050;17.416;2023-05-08T12:26:16;102267.34;;;16.46;33.22
12666;BME280;58531;59.050;17.416;2023-05-08T12:28:44;102277.59;;;16.26;32.55
12666;BME280;58531;59.050;17.416;2023-05-08T12:31:11;102271.09;;;16.48;34.05
12666;BME280;58531;59.050;17.416;2023-05-08T12:33:40;102272.63;;;16.49;33.31
12666;BME280;58531;59.050;17.416;2023-05-08T12:36:08;102263.91;;;16.33;31.01
12666;BME280;58531;59.050;17.416;2023-05-08T12:38:35;102265.63;;;16.27;31.84
12666;BME280;58531;59.050;17.416;2023-05-08T12:41:02;102256.91;;;16.10;31.83
12666;BME280;58531;59.050;17.416;2023-05-08T12:43:33;102254.31;;;16.07;32.13
12666;BME280;58531;59.050;17.416;2023-05-08T12:46:01;102250.88;;;15.94;33.01
12666;BME280;58531;59.050;17.416;2023-05-08T12:48:29;102249.13;;;16.37;31.40
12666;BME280;58531;59.050;17.416;2023-05-08T12:51:02;102258.06;;;16.34;30.22
12666;BME280;58531;59.050;17.416;2023-05-08T12:53:30;102243.19;;;16.30;28.99
12666;BME280;58531;59.050;17.416;2023-05-08T12:56:00;102251.94;;;16.34;29.45